Time;durP1;ratioP1;P1;durP2;ratioP2;P2;SDS_P1;SDS_P2;PMS_P1;PMS_P2;Temp;Humidity;BMP_temperature;BMP_pressure;BME280_temperature;BME280_humidity;BME280_pressure;Samples;Min_cycle;Max_cycle;Signal;HPM_P1;HPM_P2
2021/12/02 00:01:36;;;;;;;3.45;3.08;;;;;;;5.97;83.54;98266.09;5073932;28;20060;-54
2021/12/02 00:04:05;;;;;;;5.70;2.72;;;;;;;5.93;83.15;98266.09;5074834;28;20048;-55
2021/12/02 00:06:42;;;;;;;5.47;3.05;;;;;;;5.94;83.58;98272.09;5074384;28;20477;-55
2021/12/02 00:09:21;;;;;;;3.78;2.63;;;;;;;5.92;83.52;98266.09;5075319;28;20040;-55
2021/12/02 00:11:52;;;;;;;5.28;3.28;;;;;;;5.91;83.58;98261.78;5075054;28;20529;-55
2021/12/02 00:14:27;;;;;;;4.60;3.08;;;;;;;5.92;83.35;98266.09;5074060;28;20504;-55
2021/12/02 00:22:13;;;;;;;5.70;3.08;;;;;;;5.93;83.56;98270.38;5075506;28;20045;-55
2021/12/02 00:24:55;;;;;;;5.38;2.78;;;;;;;5.94;83.27;98284.97;5075563;28;20388;-55
2021/12/02 00:27:28;;;;;;;6.68;3.75;;;;;;;5.96;83.11;98285.84;5075137;28;20036;-55
2021/12/02 00:30:05;;;;;;;6.10;3.10;;;;;;;5.95;83.33;98289.25;5057111;28;20036;-55
2021/12/02 00:32:43;;;;;;;6.00;3.75;;;;;;;5.93;82.96;98290.94;5075379;28;20391;-55
2021/12/02 00:35:16;;;;;;;4.53;3.40;;;;;;;5.91;83.38;98292.66;5074925;28;20054;-55
2021/12/02 00:37:49;;;;;;;6.70;3.35;;;;;;;5.89;83.22;98295.22;5074931;28;20090;-55
2021/12/02 00:40:24;;;;;;;6.53;3.88;;;;;;;5.89;83.56;98296.91;5073871;28;20033;-55
2021/12/02 00:42:59;;;;;;;5.53;3.90;;;;;;;5.89;83.27;98294.34;5057317;28;20059;-55
2021/12/02 00:45:34;;;;;;;4.35;3.25;;;;;;;5.89;83.34;98296.91;5073890;28;20075;-55
2021/12/02 00:48:07;;;;;;;6.90;4.40;;;;;;;5.87;83.04;98298.63;5056699;28;20040;-55
2021/12/02 00:50:34;;;;;;;8.10;4.15;;;;;;;5.89;82.75;98302.06;5090404;28;20033;-55
2021/12/02 00:53:17;;;;;;;7.22;4.20;;;;;;;5.88;83.27;98296.06;5073617;28;20090;-56
2021/12/02 00:55:51;;;;;;;5.90;4.13;;;;;;;5.87;83.46;98296.03;5073431;28;20396;-54
2021/12/02 00:58:25;;;;;;;8.85;4.88;;;;;;;5.86;83.31;98299.47;5090745;28;20406;-55
2021/12/02 01:00:53;;;;;;;6.57;4.30;;;;;;;5.82;83.55;98305.44;5055918;28;20507;-55
2021/12/02 01:03:37;;;;;;;6.97;5.20;;;;;;;5.82;83.45;98308.03;5089999;28;20060;-55
2021/12/02 01:06:17;;;;;;;8.10;5.68;;;;;;;5.82;83.03;98306.31;5057004;28;20047;-56
2021/12/02 01:08:51;;;;;;;6.70;6.00;;;;;;;5.82;83.37;98311.44;5072824;28;20044;-54
2021/12/02 01:11:26;;;;;;;7.57;5.20;;;;;;;5.83;83.04;98315.75;5074369;28;20032;-55
2021/12/02 01:14:00;;;;;;;7.70;4.88;;;;;;;5.81;83.29;98309.72;5074140;28;20036;-55
2021/12/02 01:16:32;;;;;;;9.73;5.35;;;;;;;5.79;83.34;98306.28;5074564;28;20043;-55
2021/12/02 01:19:10;;;;;;;8.50;4.88;;;;;;;5.79;83.23;98306.28;5073168;28;20040;-55
2021/12/02 01:21:45;;;;;;;9.05;5.57;;;;;;;5.78;82.86;98302.84;5074009;28;20043;-55
2021/12/02 01:24:19;;;;;;;8.40;5.68;;;;;;;5.78;83.37;98308.00;5074010;28;20036;-55
2021/12/02 01:26:54;;;;;;;7.50;5.53;;;;;;;5.79;82.79;98312.28;5089376;28;20035;-55
2021/12/02 01:29:24;;;;;;;6.47;4.88;;;;;;;5.76;82.94;98312.25;5073961;28;20119;-55
2021/12/02 01:31:58;;;;;;;8.60;5.32;;;;;;;5.79;83.21;98311.41;5073867;28;20055;-55
2021/12/02 01:34:34;;;;;;;8.60;5.70;;;;;;;5.81;83.29;98309.72;5073982;28;20047;-55
2021/12/02 01:37:14;;;;;;;8.77;5.40;;;;;;;5.83;83.29;98317.47;5072515;28;20040;-55
2021/12/02 01:39:48;;;;;;;9.27;6.03;;;;;;;5.85;83.46;98315.72;5073802;28;20037;-54
2021/12/02 01:42:27;;;;;;;9.18;5.72;;;;;;;5.81;83.20;98324.28;5072967;28;20033;-55
2021/12/02 01:44:58;;;;;;;11.40;5.20;;;;;;;5.81;83.12;98317.44;5072406;28;20123;-55
2021/12/02 01:47:35;;;;;;;12.30;5.63;;;;;;;5.79;83.25;98313.97;5055715;28;20041;-55
2021/12/02 01:52:32;;;;;;;8.15;5.20;;;;;;;5.80;83.27;98320.84;5111664;27;20142;-57
2021/12/02 01:55:14;;;;;;;7.95;5.13;;;;;;;5.80;83.05;98326.00;5076616;28;20032;-56
2021/12/02 01:58:00;;;;;;;9.82;5.35;;;;;;;5.77;83.30;98329.41;5093151;28;20046;-54
2021/12/02 02:00:43;;;;;;;7.15;4.82;;;;;;;5.78;83.06;98327.69;5111544;28;20098;-55
2021/12/02 02:03:14;;;;;;;7.53;4.60;;;;;;;5.77;82.63;98334.56;5092860;28;20114;-55
2021/12/02 02:05:41;;;;;;;10.25;4.97;;;;;;;5.79;83.16;98340.56;5111192;28;20040;-55
2021/12/02 02:08:16;;;;;;;6.40;4.93;;;;;;;5.79;82.76;98343.13;5111066;28;20028;-56
2021/12/02 02:10:53;;;;;;;8.98;5.15;;;;;;;5.81;82.82;98343.13;5092894;28;20486;-55
2021/12/02 02:13:23;;;;;;;6.57;4.57;;;;;;;5.80;83.23;98344.00;5093441;28;20032;-55
2021/12/02 02:15:53;;;;;;;10.25;4.70;;;;;;;5.80;83.51;98349.13;5092867;28;20071;-55
2021/12/02 02:18:31;;;;;;;9.95;4.68;;;;;;;5.79;83.28;98352.53;5110975;28;20066;-55
2021/12/02 02:21:08;;;;;;;6.78;5.07;;;;;;;5.79;83.21;98344.84;5092999;28;20123;-55
2021/12/02 02:23:51;;;;;;;7.75;3.95;;;;;;;5.77;83.11;98341.38;5110877;28;20028;-55
2021/12/02 02:26:26;;;;;;;7.57;4.57;;;;;;;5.78;82.92;98343.09;5110930;28;20045;-55
2021/12/02 02:29:02;;;;;;;5.50;4.18;;;;;;;5.76;82.98;98337.97;5092525;28;20482;-55
2021/12/02 02:31:29;;;;;;;7.18;4.40;;;;;;;5.78;83.05;98340.53;5110702;28;20115;-56
2021/12/02 02:34:03;;;;;;;9.88;4.63;;;;;;;5.78;83.38;98338.84;5076382;28;20379;-55
2021/12/02 02:36:32;;;;;;;7.68;4.85;;;;;;;5.79;82.67;98338.00;5110704;28;20224;-56
2021/12/02 02:39:05;;;;;;;8.27;4.72;;;;;;;5.81;83.46;98348.28;5092446;28;20089;-55
2021/12/02 02:41:52;;;;;;;7.70;4.90;;;;;;;5.80;83.39;98336.28;5075741;28;20122;-56
2021/12/02 02:44:28;;;;;;;9.48;5.75;;;;;;;5.81;83.46;98337.16;5075806;28;20402;-55
2021/12/02 02:46:59;;;;;;;9.52;5.63;;;;;;;5.80;82.72;98338.84;5110427;28;20100;-55
2021/12/02 02:49:36;;;;;;;8.25;5.50;;;;;;;5.78;82.90;98336.28;5075703;28;20042;-56
2021/12/02 02:52:09;;;;;;;8.23;5.78;;;;;;;5.74;82.88;98341.38;5110069;28;20047;-56
2021/12/02 02:54:45;;;;;;;8.95;6.70;;;;;;;5.74;82.96;98342.22;5092754;28;20036;-55
2021/12/02 02:57:23;;;;;;;11.43;6.90;;;;;;;5.73;82.68;98340.50;5075571;28;20092;-55
2021/12/02 03:00:16;;;;;;;11.70;6.05;;;;;;;5.72;83.09;98333.66;5110578;28;20043;-55
2021/12/02 03:03:01;;;;;;;10.88;5.45;;;;;;;5.73;82.71;98339.66;5103299;28;20043;-55
2021/12/02 03:05:52;;;;;;;8.65;5.10;;;;;;;5.71;83.27;98342.19;5061915;28;20036;-55
2021/12/02 03:08:32;;;;;;;9.35;4.95;;;;;;;5.70;82.85;98343.03;5060764;28;20519;-55
2021/12/02 03:11:13;;;;;;;7.30;5.32;;;;;;;5.68;82.96;98331.91;5078247;28;20433;-55
2021/12/02 03:13:55;;;;;;;8.38;6.30;;;;;;;5.70;82.54;98324.22;5078321;28;20036;-55
2021/12/02 03:16:44;;;;;;;12.07;4.55;;;;;;;5.69;82.66;98328.47;5061420;28;20032;-55
2021/12/02 03:19:31;;;;;;;7.65;4.70;;;;;;;5.68;82.54;98333.63;5078169;28;20093;-53
2021/12/02 03:21:57;;;;;;;9.18;4.65;;;;;;;5.68;83.02;98334.50;5096189;28;20032;-56
2021/12/02 03:24:25;;;;;;;13.82;5.30;;;;;;;5.66;82.60;98332.72;5095107;28;20507;-55
2021/12/02 03:26:59;;;;;;;7.50;5.15;;;;;;;5.63;82.60;98331.00;5078080;28;20046;-55
2021/12/02 03:29:30;;;;;;;7.53;4.82;;;;;;;5.61;82.96;98341.25;5096081;28;20081;-55
2021/12/02 03:32:04;;;;;;;5.93;4.88;;;;;;;5.59;82.71;98335.28;5078235;28;20392;-55
2021/12/02 03:34:38;;;;;;;11.30;5.88;;;;;;;5.56;82.50;98336.94;5061368;28;20040;-55
2021/12/02 03:37:11;;;;;;;10.35;5.28;;;;;;;5.55;83.05;98336.09;5095936;28;20040;-55
2021/12/02 03:39:42;;;;;;;12.03;5.60;;;;;;;5.53;83.07;98335.22;5095739;28;20185;-55
2021/12/02 03:42:13;;;;;;;10.98;5.35;;;;;;;5.53;83.02;98331.78;5060904;28;20546;-55
2021/12/02 03:44:44;;;;;;;7.18;4.57;;;;;;;5.49;83.13;98342.03;5078503;28;20044;-55
2021/12/02 03:47:12;;;;;;;12.35;5.55;;;;;;;5.49;83.01;98339.47;5061413;28;20387;-55
2021/12/02 03:49:49;;;;;;;12.40;5.72;;;;;;;5.50;82.60;98340.31;5095759;28;20040;-55
2021/12/02 03:52:20;;;;;;;9.07;5.55;;;;;;;5.48;82.89;98342.88;5077532;28;20044;-55
2021/12/02 03:54:50;;;;;;;10.35;6.15;;;;;;;5.47;83.09;98348.88;5095516;28;20036;-55
2021/12/02 03:57:21;;;;;;;15.65;5.53;;;;;;;5.46;82.69;98346.25;5060524;28;20040;-55
2021/12/02 03:59:55;;;;;;;13.57;6.05;;;;;;;5.47;83.09;98345.41;5077428;28;20036;-55
2021/12/02 04:02:34;;;;;;;10.07;5.80;;;;;;;5.46;82.76;98344.56;5095421;28;20036;-55
2021/12/02 04:05:08;;;;;;;10.35;5.28;;;;;;;5.47;82.91;98346.28;5077205;28;20035;-55
2021/12/02 04:07:43;;;;;;;11.30;5.25;;;;;;;5.48;82.64;98345.44;5060809;28;20071;-55
2021/12/02 04:10:20;;;;;;;10.90;5.50;;;;;;;5.49;82.90;98347.16;5095326;28;20040;-55
2021/12/02 04:15:54;;;;;;;14.88;5.47;;;;;;;5.49;82.45;98348.88;5094287;28;20040;-55
2021/12/02 04:18:28;;;;;;;11.50;5.32;;;;;;;5.49;82.50;98347.16;5077493;28;20554;-55
2021/12/02 04:21:04;;;;;;;14.30;6.80;;;;;;;5.48;82.56;98347.13;5077448;28;20044;-55
2021/12/02 04:23:37;;;;;;;12.00;5.15;;;;;;;5.48;82.56;98339.44;5077298;28;20036;-55
2021/12/02 04:26:14;;;;;;;11.52;5.93;;;;;;;5.47;82.44;98341.16;5060130;28;20089;-55
2021/12/02 04:28:54;;;;;;;14.00;5.82;;;;;;;5.44;82.50;98346.25;5094705;28;20115;-55
2021/12/02 04:31:25;;;;;;;19.00;6.15;;;;;;;5.44;83.00;98350.56;5094772;28;20076;-55
2021/12/02 04:33:56;;;;;;;16.08;5.78;;;;;;;5.46;82.19;98343.69;5094931;28;20050;-55
2021/12/02 04:36:26;;;;;;;15.35;4.78;;;;;;;5.43;82.25;98348.81;5076787;28;20044;-55
2021/12/02 04:39:00;;;;;;;10.18;4.68;;;;;;;5.43;82.55;98351.41;5059873;28;20089;-55
2021/12/02 04:41:33;;;;;;;10.32;3.70;;;;;;;5.42;82.60;98353.09;5076864;28;20056;-55
2021/12/02 04:44:10;;;;;;;11.25;4.75;;;;;;;5.39;82.58;98353.06;5076711;28;20437;-55
2021/12/02 04:46:41;;;;;;;;;;;;;;;5.38;82.09;98351.31;5060173;28;20483;-55
2021/12/02 04:49:20;;;;;;;13.48;4.38;;;;;;;5.37;82.78;98352.19;5076276;28;19922;-55
2021/12/02 04:51:57;;;;;;;13.00;5.18;;;;;;;5.36;82.83;98359.88;5076244;28;20101;-55
2021/12/02 04:54:33;;;;;;;11.40;4.72;;;;;;;5.34;82.65;98353.00;5094465;28;20077;-55
2021/12/02 04:57:09;;;;;;;15.48;4.93;;;;;;;5.36;82.72;98354.72;5094402;28;20035;-55
2021/12/02 04:59:43;;;;;;;8.85;5.70;;;;;;;5.33;82.57;98360.72;5094385;28;20047;-55
2021/12/02 05:02:14;;;;;;;12.85;4.95;;;;;;;5.36;82.61;98354.72;5059970;28;20055;-54
2021/12/02 05:04:45;;;;;;;13.65;5.75;;;;;;;5.36;82.64;98363.31;5075890;28;20035;-55
2021/12/02 05:07:18;;;;;;;13.32;5.38;;;;;;;5.36;82.46;98360.75;5076413;28;20504;-55
2021/12/02 05:09:49;;;;;;;9.07;4.65;;;;;;;5.32;82.26;98359.84;5094108;28;20043;-54
2021/12/02 05:12:23;;;;;;;13.57;5.38;;;;;;;5.31;82.54;98363.25;5075972;28;20498;-55
2021/12/02 05:14:57;;;;;;;14.23;5.25;;;;;;;5.31;82.29;98365.81;5059671;28;20040;-54
2021/12/02 05:17:30;;;;;;;7.25;4.82;;;;;;;5.29;82.45;98375.25;5059571;28;20089;-55
2021/12/02 05:20:07;;;;;;;12.75;5.57;;;;;;;5.27;82.26;98371.78;5059104;28;20046;-55
2021/12/02 05:22:33;;;;;;;11.80;5.53;;;;;;;5.25;81.97;98376.06;5094199;28;20035;-55
2021/12/02 05:25:04;;;;;;;11.13;4.75;;;;;;;5.26;82.70;98372.63;5058824;28;20732;-55
2021/12/02 05:27:35;;;;;;;11.02;4.88;;;;;;;5.22;82.38;98372.56;5075952;28;20047;-55
2021/12/02 05:30:10;;;;;;;8.25;5.15;;;;;;;5.25;82.86;98373.47;5059195;28;20058;-55
2021/12/02 05:32:43;;;;;;;8.88;4.22;;;;;;;5.26;82.68;98370.06;5076308;28;20032;-55
2021/12/02 05:35:17;;;;;;;9.07;4.43;;;;;;;5.25;82.21;98368.34;5058923;28;20048;-55
2021/12/02 05:37:51;;;;;;;13.50;5.03;;;;;;;5.23;82.52;98361.44;5075742;28;20039;-55
2021/12/02 05:40:24;;;;;;;7.35;4.90;;;;;;;5.21;82.59;98374.28;5093640;28;20032;-55
2021/12/02 05:42:55;;;;;;;5.53;4.00;;;;;;;5.18;82.39;98370.00;5093474;28;20488;-54
2021/12/02 05:45:28;;;;;;;11.85;6.07;;;;;;;5.21;82.06;98366.59;5075638;28;20399;-55
2021/12/02 05:48:02;;;;;;;5.63;3.45;;;;;;;5.18;81.91;98367.41;5059080;28;20040;-55
2021/12/02 05:50:33;;;;;;;7.97;3.45;;;;;;;5.18;82.54;98369.09;5058835;28;20032;-55
2021/12/02 05:53:05;;;;;;;7.90;4.80;;;;;;;5.14;82.22;98370.78;5093609;28;20044;-55
2021/12/02 05:55:36;;;;;;;7.57;3.58;;;;;;;5.14;82.03;98378.50;5058644;28;20051;-55
2021/12/02 05:58:07;;;;;;;5.22;3.13;;;;;;;5.10;82.15;98378.44;5093551;28;20050;-55
2021/12/02 06:00:38;;;;;;;9.32;4.47;;;;;;;5.13;82.07;98381.91;5058497;28;20040;-54
2021/12/02 06:03:09;;;;;;;10.85;3.70;;;;;;;5.11;81.98;98383.59;5093837;28;20028;-55
2021/12/02 06:05:45;;;;;;;4.72;3.13;;;;;;;5.09;82.42;98390.41;5058495;28;20036;-54
2021/12/02 06:08:20;;;;;;;4.35;3.15;;;;;;;5.11;82.00;98403.28;5075795;28;20387;-55
2021/12/02 06:10:53;;;;;;;6.47;3.00;;;;;;;5.12;81.88;98397.31;5093334;28;20040;-55
2021/12/02 06:13:26;;;;;;;5.55;2.72;;;;;;;5.10;82.10;98396.44;5059016;28;20147;-55
2021/12/02 06:15:57;;;;;;;6.78;2.88;;;;;;;5.07;81.87;98394.66;5093569;28;20059;-55
2021/12/02 06:18:28;;;;;;;6.07;3.15;;;;;;;5.09;82.18;98394.69;5058618;28;20131;-55
2021/12/02 06:20:54;;;;;;;4.13;2.75;;;;;;;5.10;82.25;98416.97;5058462;28;20040;-56
2021/12/02 06:23:26;;;;;;;3.38;2.40;;;;;;;5.08;82.25;98409.22;5075596;28;20487;-55
2021/12/02 06:26:02;;;;;;;6.03;2.97;;;;;;;5.09;81.73;98407.53;5058456;28;20039;-55
2021/12/02 06:28:39;;;;;;;6.28;3.10;;;;;;;5.05;82.01;98401.50;5075445;28;20055;-55
2021/12/02 06:31:10;;;;;;;5.05;2.88;;;;;;;5.08;82.18;98404.09;5093296;28;20089;-55
2021/12/02 06:33:44;;;;;;;3.35;2.80;;;;;;;5.05;82.18;98419.50;5058261;28;20043;-55
2021/12/02 06:36:18;;;;;;;4.72;3.00;;;;;;;5.03;82.27;98413.47;5058227;28;20078;-55
2021/12/02 06:38:51;;;;;;;3.78;3.33;;;;;;;5.01;82.10;98415.16;5096044;28;20356;-56
2021/12/02 06:41:24;;;;;;;3.08;2.55;;;;;;;5.01;81.92;98412.59;5078838;28;20137;-55
2021/12/02 06:43:50;;;;;;;5.93;3.80;;;;;;;5.02;82.28;98420.28;5078906;28;20241;-55
2021/12/02 06:46:23;;;;;;;8.02;3.53;;;;;;;5.02;81.70;98422.88;5097108;28;20127;-54
2021/12/02 06:49:00;;;;;;;7.30;3.72;;;;;;;5.00;81.97;98421.13;5062013;28;20495;-54
2021/12/02 06:51:33;;;;;;;5.82;3.40;;;;;;;5.03;81.94;98422.03;5065242;28;20504;-54
2021/12/02 06:54:12;;;;;;;7.70;4.80;;;;;;;5.04;81.74;98425.47;5039584;28;20033;-55
2021/12/02 06:56:38;;;;;;;5.35;3.58;;;;;;;5.00;81.83;98413.44;5055510;28;20048;-55
2021/12/02 06:59:04;;;;;;;5.45;3.30;;;;;;;4.98;81.91;98425.38;5056258;28;20033;-56
2021/12/02 07:01:29;;;;;;;7.45;4.03;;;;;;;4.95;82.06;98420.19;5055403;28;20048;-55
2021/12/02 07:03:55;;;;;;;7.85;3.35;;;;;;;4.95;81.95;98423.66;5056106;28;20029;-55
2021/12/02 07:06:22;;;;;;;7.57;3.80;;;;;;;4.95;82.01;98433.03;5054738;28;20052;-54
2021/12/02 07:08:48;;;;;;;6.03;3.85;;;;;;;4.94;81.58;98433.88;5056491;28;20599;-55
2021/12/02 07:11:14;;;;;;;8.55;4.57;;;;;;;4.95;81.72;98433.03;5056053;28;20120;-55
2021/12/02 07:13:47;;;;;;;6.93;3.47;;;;;;;4.97;81.96;98429.66;5055827;28;20029;-54
2021/12/02 07:16:12;;;;;;;6.30;4.33;;;;;;;4.95;81.51;98439.06;5038864;28;20040;-55
2021/12/02 07:18:42;;;;;;;8.23;4.32;;;;;;;4.91;82.03;98442.41;5054581;28;20361;-55
2021/12/02 07:21:10;;;;;;;5.25;4.05;;;;;;;4.91;81.74;98438.97;5056018;28;20041;-55
2021/12/02 07:23:39;;;;;;;5.63;3.67;;;;;;;4.93;81.93;98451.00;5037974;28;20071;-55
2021/12/02 07:26:04;;;;;;;5.22;4.22;;;;;;;4.91;81.24;98441.53;5055746;28;20055;-54
2021/12/02 07:28:36;;;;;;;5.07;3.20;;;;;;;4.90;81.85;98447.53;5054647;28;20488;-55
2021/12/02 07:31:08;;;;;;;4.72;3.65;;;;;;;4.88;81.47;98448.38;5054743;28;20029;-55
2021/12/02 07:33:38;;;;;;;6.05;4.00;;;;;;;4.87;82.12;98456.94;5055621;28;20037;-54
2021/12/02 07:36:09;;;;;;;3.92;2.65;;;;;;;4.87;81.48;98467.19;5055586;28;20182;-55
2021/12/02 07:38:41;;;;;;;6.65;3.53;;;;;;;4.88;81.37;98468.91;5054272;28;20056;-55
2021/12/02 07:41:10;;;;;;;5.15;4.63;;;;;;;4.89;81.39;98480.03;5054582;28;20033;-55
2021/12/02 07:43:43;;;;;;;4.72;3.50;;;;;;;4.87;81.76;98474.91;5055655;28;20067;-54
2021/12/02 07:46:12;;;;;;;6.50;3.33;;;;;;;4.87;81.23;98468.88;5054428;28;20037;-54
2021/12/02 07:48:43;;;;;;;5.50;3.50;;;;;;;4.87;81.49;98487.72;5037551;28;20073;-54
2021/12/02 07:51:21;;;;;;;7.68;4.63;;;;;;;4.85;81.87;98499.69;5037168;28;20080;-55
2021/12/02 07:53:51;;;;;;;8.82;3.55;;;;;;;4.85;81.79;98507.38;5055601;28;20036;-55
2021/12/02 07:56:26;;;;;;;10.45;4.20;;;;;;;4.85;81.29;98506.50;5053997;28;20040;-54
2021/12/02 07:58:54;;;;;;;4.65;3.05;;;;;;;4.86;81.64;98503.09;5055348;28;20029;-54
2021/12/02 08:01:25;;;;;;;5.20;3.35;;;;;;;4.84;81.41;98515.91;5053878;28;20124;-55
2021/12/02 08:03:51;;;;;;;4.18;3.25;;;;;;;4.85;81.51;98514.19;5055399;28;20028;-54
2021/12/02 08:06:24;;;;;;;7.13;3.00;;;;;;;4.83;81.37;98521.00;5053976;28;20399;-55
2021/12/02 08:08:52;;;;;;;5.30;3.78;;;;;;;4.81;81.35;98526.13;5054986;28;20060;-55
2021/12/02 08:11:21;;;;;;;3.42;2.90;;;;;;;4.84;81.45;98535.56;5036913;28;20064;-55
2021/12/02 08:13:55;;;;;;;5.15;3.88;;;;;;;4.83;81.43;98541.53;5037103;28;20037;-55
2021/12/02 08:16:26;;;;;;;4.13;2.45;;;;;;;4.81;81.22;98538.97;5054982;28;20076;-55
2021/12/02 08:18:54;;;;;;;4.35;2.83;;;;;;;4.86;81.41;98545.03;5037504;28;20033;-55
2021/12/02 08:21:20;;;;;;;3.95;3.50;;;;;;;4.87;81.47;98545.91;5054815;28;20044;-54
2021/12/02 08:23:55;;;;;;;6.68;2.88;;;;;;;4.84;81.77;98549.28;5053618;28;20055;-55
2021/12/02 08:26:22;;;;;;;5.85;3.70;;;;;;;4.81;81.31;98548.38;5054587;28;20037;-55
2021/12/02 08:28:51;;;;;;;8.90;3.53;;;;;;;4.82;81.44;98550.97;5054369;28;20515;-55
2021/12/02 08:31:22;;;;;;;7.78;3.35;;;;;;;4.82;81.74;98548.41;5036836;28;20101;-55
2021/12/02 08:33:49;;;;;;;3.88;3.15;;;;;;;4.82;81.14;98552.69;5036676;28;20044;-55
2021/12/02 08:36:15;;;;;;;4.10;3.13;;;;;;;4.85;81.64;98558.72;5053232;28;20069;-54
2021/12/02 08:38:48;;;;;;;6.10;3.40;;;;;;;4.88;81.61;98552.75;5053316;28;20036;-55
2021/12/02 08:41:20;;;;;;;5.80;3.22;;;;;;;4.88;81.36;98552.75;5054176;28;20067;-54
2021/12/02 08:43:53;;;;;;;4.93;3.78;;;;;;;4.88;81.43;98557.91;5054671;28;20108;-55
2021/12/02 08:46:26;;;;;;;7.20;3.85;;;;;;;4.82;81.64;98557.81;5036343;28;20045;-55
2021/12/02 08:48:59;;;;;;;8.25;4.57;;;;;;;4.81;81.42;98566.38;5054290;28;20045;-55
2021/12/02 08:51:33;;;;;;;6.90;4.28;;;;;;;4.80;81.17;98557.78;5036135;28;20408;-55
2021/12/02 08:54:06;;;;;;;9.23;5.03;;;;;;;4.80;81.33;98573.19;5054447;28;20073;-55
2021/12/02 08:56:34;;;;;;;7.88;4.47;;;;;;;4.78;81.35;98579.16;5036678;28;20416;-55
2021/12/02 08:59:09;;;;;;;7.32;4.78;;;;;;;4.75;81.15;98579.09;5053985;28;20033;-55
2021/12/02 09:01:42;;;;;;;6.82;4.25;;;;;;;4.77;81.40;98582.53;5052732;28;20087;-54
2021/12/02 09:04:18;;;;;;;8.05;4.50;;;;;;;4.77;81.56;98588.53;5036193;28;20128;-55
2021/12/02 09:06:54;;;;;;;7.63;4.35;;;;;;;4.75;81.34;98577.38;5052993;28;20033;-55
2021/12/02 09:09:28;;;;;;;6.18;4.88;;;;;;;4.72;81.37;98574.78;5052827;28;20044;-54
2021/12/02 09:12:03;;;;;;;8.90;5.40;;;;;;;4.75;81.04;98577.38;5052659;28;20500;-55
2021/12/02 09:14:40;;;;;;;7.88;5.10;;;;;;;4.75;80.94;98592.78;5053805;28;20029;-55
2021/12/02 09:17:13;;;;;;;10.27;5.05;;;;;;;4.72;81.52;98593.59;5054065;28;20041;-55
2021/12/02 09:19:45;;;;;;;9.85;5.10;;;;;;;4.72;81.64;98610.72;5052986;28;20042;-54
2021/12/02 09:22:21;;;;;;;6.10;3.92;;;;;;;4.70;81.34;98607.25;5035783;28;20040;-55
2021/12/02 09:24:52;;;;;;;6.53;3.97;;;;;;;4.69;81.46;98602.94;5053719;28;20141;-55
2021/12/02 09:27:25;;;;;;;5.38;4.32;;;;;;;4.69;81.33;98620.91;5035667;28;20037;-55
2021/12/02 09:29:59;;;;;;;7.65;3.92;;;;;;;4.68;81.04;98624.31;5053886;28;20055;-55
2021/12/02 09:32:38;;;;;;;6.93;4.38;;;;;;;4.68;81.54;98621.75;5053348;28;20393;-55
2021/12/02 09:35:10;;;;;;;4.85;3.72;;;;;;;4.65;81.09;98630.28;5053656;28;20040;-55
2021/12/02 09:37:41;;;;;;;6.47;3.75;;;;;;;4.67;81.35;98631.16;5053515;28;20072;-55
2021/12/02 09:40:14;;;;;;;;;;;;;;;4.69;81.39;98634.59;5053011;28;20064;-55
2021/12/02 09:42:43;;;;;;;5.47;3.33;;;;;;;4.75;81.29;98630.41;5035582;28;19916;-54
2021/12/02 09:45:17;;;;;;;8.63;4.20;;;;;;;4.78;81.56;98631.31;5053936;28;20196;-55
2021/12/02 09:47:52;;;;;;;7.78;3.25;;;;;;;4.75;81.24;98638.97;5052267;28;20080;-54
2021/12/02 09:50:30;;;;;;;4.78;4.10;;;;;;;4.65;81.01;98644.78;5052396;28;20048;-54
2021/12/02 09:53:04;;;;;;;7.57;3.15;;;;;;;4.64;81.14;98648.19;5059392;28;20072;-55
2021/12/02 09:55:49;;;;;;;4.30;3.10;;;;;;;4.62;81.25;98643.06;5059088;28;20047;-55
2021/12/02 09:58:26;;;;;;;5.68;3.53;;;;;;;4.64;80.77;98643.06;5058789;28;20482;-54
2021/12/02 10:01:31;;;;;;;5.80;2.92;;;;;;;4.63;81.63;98649.91;5093786;28;20044;-55
2021/12/02 10:04:04;;;;;;;4.63;2.95;;;;;;;4.70;81.55;98649.16;5073285;28;20541;-54
2021/12/02 10:06:35;;;;;;;5.40;3.05;;;;;;;4.72;81.39;98650.06;5058566;28;20040;-54
2021/12/02 10:09:15;;;;;;;6.13;3.00;;;;;;;4.69;81.21;98651.72;5075816;28;20068;-55
2021/12/02 10:11:57;;;;;;;5.70;3.13;;;;;;;4.70;81.31;98656.03;5093784;28;20032;-55
2021/12/02 10:14:38;;;;;;;4.72;3.25;;;;;;;4.67;80.76;98656.81;5097689;28;20031;-54
2021/12/02 10:17:20;;;;;;;4.40;2.75;;;;;;;4.64;81.11;98649.06;5079403;28;20036;-55
2021/12/02 10:20:25;;;;;;;6.93;3.55;;;;;;;4.62;80.98;98657.56;5097473;28;20043;-55
2021/12/02 10:23:12;;;;;;;3.92;3.47;;;;;;;4.56;80.82;98658.31;5062546;28;20040;-55
2021/12/02 10:25:49;;;;;;;5.60;3.05;;;;;;;4.59;80.83;98655.81;5062409;28;20061;-55
2021/12/02 10:28:24;;;;;;;4.80;3.38;;;;;;;4.59;81.00;98662.69;5079194;28;20523;-54
2021/12/02 10:31:03;;;;;;;6.25;3.30;;;;;;;4.59;81.13;98662.69;5079107;28;20409;-55
2021/12/02 10:33:42;;;;;;;6.05;3.42;;;;;;;4.61;81.16;98658.41;5097094;28;20578;-54
2021/12/02 10:36:36;;;;;;;4.20;3.53;;;;;;;4.58;81.28;98669.50;5062186;28;20036;-55
2021/12/02 10:39:12;;;;;;;4.50;2.67;;;;;;;4.60;80.92;98662.69;5078972;28;20077;-55
2021/12/02 10:41:48;;;;;;;3.70;3.08;;;;;;;4.58;80.92;98646.41;5062711;28;20044;-55
2021/12/02 10:44:26;;;;;;;2.33;2.10;;;;;;;4.59;81.26;98655.81;5096990;28;20063;-54
2021/12/02 10:47:11;;;;;;;5.72;2.72;;;;;;;4.55;81.21;98642.09;5097379;28;20032;-54
2021/12/02 10:49:50;;;;;;;6.85;2.50;;;;;;;4.55;81.12;98636.94;5097055;28;20550;-55
2021/12/02 10:52:24;;;;;;;5.75;3.20;;;;;;;4.53;80.69;98642.88;5096502;28;20523;-55
2021/12/02 10:55:09;;;;;;;3.78;3.50;;;;;;;4.52;80.56;98648.84;5096839;28;20081;-55
2021/12/02 10:57:48;;;;;;;5.47;2.80;;;;;;;4.49;81.14;98644.53;5096763;28;20040;-55
2021/12/02 11:00:31;;;;;;;3.83;2.40;;;;;;;4.47;80.68;98642.78;5096834;28;20036;-55
2021/12/02 11:03:13;;;;;;;3.92;3.20;;;;;;;4.48;80.32;98645.38;5096766;28;20470;-55
2021/12/02 11:05:50;;;;;;;3.78;3.03;;;;;;;4.52;81.06;98644.59;5078337;28;20123;-54
2021/12/02 11:08:23;;;;;;;3.17;2.88;;;;;;;4.53;80.84;98646.31;5062280;28;20036;-55
2021/12/02 11:10:54;;;;;;;5.35;3.35;;;;;;;4.51;80.69;98650.56;5062087;28;20028;-55
2021/12/02 11:13:26;;;;;;;5.05;3.38;;;;;;;4.49;80.73;98647.09;5078693;28;20123;-55
2021/12/02 11:15:58;;;;;;;3.70;2.78;;;;;;;4.49;81.16;98648.81;5061758;28;20032;-55
2021/12/02 11:18:33;;;;;;;3.72;3.30;;;;;;;4.47;80.67;98646.19;5077991;28;20460;-55
2021/12/02 11:21:07;;;;;;;4.40;3.10;;;;;;;4.49;80.62;98652.22;5061477;28;20031;-55
2021/12/02 11:23:45;;;;;;;8.00;3.20;;;;;;;4.48;80.62;98647.94;5077550;28;20547;-54
2021/12/02 11:26:17;;;;;;;5.57;3.65;;;;;;;4.49;80.74;98646.25;5096189;28;20114;-55
2021/12/02 11:28:48;;;;;;;4.95;3.25;;;;;;;4.51;81.06;98654.84;5061542;28;20063;-54
2021/12/02 11:31:21;;;;;;;6.28;4.50;;;;;;;4.48;81.00;98671.03;5060692;28;20522;-55
2021/12/02 11:33:52;;;;;;;6.28;4.60;;;;;;;4.49;80.20;98666.78;5095906;28;20032;-55
2021/12/02 11:36:29;;;;;;;5.75;3.75;;;;;;;4.45;80.78;98665.81;5061430;28;20035;-55
2021/12/02 11:39:00;;;;;;;5.38;3.72;;;;;;;4.49;81.13;98671.91;5078049;28;20380;-55
2021/12/02 11:41:31;;;;;;;8.32;3.80;;;;;;;4.52;80.41;98665.13;5061549;28;20118;-55
2021/12/02 11:43:59;;;;;;;4.32;3.55;;;;;;;4.48;80.92;98670.16;5060884;28;20546;-55
2021/12/02 11:46:31;;;;;;;4.65;3.63;;;;;;;4.48;80.75;98680.44;5095721;28;20039;-55
2021/12/02 11:49:05;;;;;;;5.60;3.45;;;;;;;4.46;80.85;98684.66;5077917;28;20035;-55
2021/12/02 11:51:38;;;;;;;;;;;;;;;4.45;80.44;98677.81;5095723;28;20059;-55
2021/12/02 11:54:04;;;;;;;4.32;3.08;;;;;;;4.46;81.19;98675.25;5060328;28;20057;-54
2021/12/02 11:56:40;;;;;;;6.35;3.65;;;;;;;4.44;80.81;98674.34;5077545;28;20500;-54
2021/12/02 11:59:16;;;;;;;6.50;5.03;;;;;;;4.45;81.26;98673.53;5077537;28;20047;-55
2021/12/02 12:01:53;;;;;;;8.07;4.75;;;;;;;4.47;80.64;98676.13;5095393;28;20482;-56
2021/12/02 12:04:27;;;;;;;8.07;3.78;;;;;;;4.46;80.67;98684.66;5095485;28;20028;-54
2021/12/02 12:07:15;;;;;;;7.72;3.58;;;;;;;4.46;80.67;98687.22;5061109;28;20082;-56
2021/12/02 12:09:45;;;;;;;5.32;4.05;;;;;;;4.48;80.48;98699.25;5095337;28;20040;-55
2021/12/02 12:12:37;;;;;;;8.45;3.63;;;;;;;4.46;81.35;98702.63;5095271;28;20036;-55
2021/12/02 12:15:29;;;;;;;8.50;3.70;;;;;;;4.46;80.54;98702.63;5060254;28;20493;-54
2021/12/02 12:18:07;;;;;;;10.02;4.00;;;;;;;4.43;80.90;98700.88;5076790;28;20040;-54
2021/12/02 12:20:52;;;;;;;5.63;3.20;;;;;;;4.45;80.49;98706.88;5060092;28;20054;-54
2021/12/02 12:23:34;;;;;;;;;;;;;;;4.45;80.66;98709.44;5095266;28;20050;-55
2021/12/02 12:26:20;;;;;;;7.82;3.50;;;;;;;4.44;80.80;98710.28;5059995;28;20085;-55